sensor_id;sensor_type;location;lat;lon;timestamp;pressure;altitude;pressure_sealevel;temperature;humidity
22930;BME280;11630;42.660;23.292;2024-03-07T00:00:13;68738.36;;;10.94;100.00
22930;BME280;11630;42.660;23.292;2024-03-07T00:02:44;68741.34;;;10.91;100.00
22930;BME280;11630;42.660;23.292;2024-03-07T00:05:15;68753.30;;;11.02;100.00
22930;BME280;11630;42.660;23.292;2024-03-07T00:07:45;68745.13;;;10.92;100.00
22930;BME280;11630;42.660;23.292;2024-03-07T00:10:16;68708.44;;;10.65;100.00
22930;BME280;11630;42.660;23.292;2024-03-07T00:12:47;68695.07;;;10.44;100.00
22930;BME280;11630;42.660;23.292;2024-03-07T00:15:17;68672.53;;;10.34;100.00
22930;BME280;11630;42.660;23.292;2024-03-07T00:17:49;68697.55;;;10.52;100.00
22930;BME280;11630;42.660;23.292;2024-03-07T00:20:20;68695.09;;;10.54;100.00
22930;BME280;11630;42.660;23.292;2024-03-07T00:22:51;68678.22;;;10.31;100.00
22930;BME280;11630;42.660;23.292;2024-03-07T00:25:22;68692.09;;;10.42;100.00
22930;BME280;11630;42.660;23.292;2024-03-07T00:27:53;68672.80;;;10.31;100.00
22930;BME280;11630;42.660;23.292;2024-03-07T00:30:24;68663.00;;;10.19;100.00
22930;BME280;11630;42.660;23.292;2024-03-07T00:32:55;68657.03;;;10.19;100.00
22930;BME280;11630;42.660;23.292;2024-03-07T00:35:26;68668.98;;;10.25;100.00
22930;BME280;11630;42.660;23.292;2024-03-07T00:37:58;68685.56;;;10.44;100.00
22930;BME280;11630;42.660;23.292;2024-03-07T00:40:29;68701.08;;;10.54;100.00
22930;BME280;11630;42.660;23.292;2024-03-07T00:43:00;68686.92;;;10.41;100.00
22930;BME280;11630;42.660;23.292;2024-03-07T00:45:30;68698.08;;;10.53;100.00
22930;BME280;11630;42.660;23.292;2024-03-07T00:48:00;68701.62;;;10.55;100.00
22930;BME280;11630;42.660;23.292;2024-03-07T00:50:31;68698.37;;;10.54;100.00
22930;BME280;11630;42.660;23.292;2024-03-07T00:53:03;68695.09;;;10.54;100.00
22930;BME280;11630;42.660;23.292;2024-03-07T00:55:34;68697.81;;;10.54;100.00
22930;BME280;11630;42.660;23.292;2024-03-07T00:58:04;68691.02;;;10.49;100.00
22930;BME280;11630;42.660;23.292;2024-03-07T01:00:34;68702.98;;;10.60;100.00
22930;BME280;11630;42.660;23.292;2024-03-07T01:03:05;68705.16;;;10.62;100.00
22930;BME280;11630;42.660;23.292;2024-03-07T01:05:36;68685.59;;;10.46;100.00
22930;BME280;11630;42.660;23.292;2024-03-07T01:08:07;68708.67;;;10.59;100.00
22930;BME280;11630;42.660;23.292;2024-03-07T01:10:38;68701.08;;;10.54;100.00
22930;BME280;11630;42.660;23.292;2024-03-07T01:13:09;68694.01;;;10.53;100.00
22930;BME280;11630;42.660;23.292;2024-03-07T01:15:40;68669.28;;;10.34;100.00
22930;BME280;11630;42.660;23.292;2024-03-07T01:18:11;68666.83;;;10.30;100.00
22930;BME280;11630;42.660;23.292;2024-03-07T01:20:42;68660.55;;;10.18;100.00
22930;BME280;11630;42.660;23.292;2024-03-07T01:23:13;68655.38;;;10.10;100.00
22930;BME280;11630;42.660;23.292;2024-03-07T01:25:44;68652.94;;;10.11;100.00
22930;BME280;11630;42.660;23.292;2024-03-07T01:28:14;68665.71;;;10.22;100.00
22930;BME280;11630;42.660;23.292;2024-03-07T01:30:44;68660.58;;;10.21;100.00
22930;BME280;11630;42.660;23.292;2024-03-07T01:33:15;68666.80;;;10.25;100.00
22930;BME280;11630;42.660;23.292;2024-03-07T01:35:45;68654.30;;;10.14;100.00
22930;BME280;11630;42.660;23.292;2024-03-07T01:38:16;68650.23;;;10.14;100.00
22930;BME280;11630;42.660;23.292;2024-03-07T01:40:48;68682.05;;;10.39;100.00
22930;BME280;11630;42.660;23.292;2024-03-07T01:43:18;68634.70;;;9.93;100.00
22930;BME280;11630;42.660;23.292;2024-03-07T01:45:50;68618.41;;;9.84;100.00
22930;BME280;11630;42.660;23.292;2024-03-07T01:48:24;68633.36;;;9.96;100.00
22930;BME280;11630;42.660;23.292;2024-03-07T01:50:53;68658.92;;;10.19;100.00
22930;BME280;11630;42.660;23.292;2024-03-07T01:53:25;68645.59;;;10.01;100.00
22930;BME280;11630;42.660;23.292;2024-03-07T01:55:56;68665.45;;;10.23;100.00
22930;BME280;11630;42.660;23.292;2024-03-07T01:58:26;68669.81;;;10.27;100.00
22930;BME280;11630;42.660;23.292;2024-03-07T02:00:58;68666.80;;;10.25;100.00
22930;BME280;11630;42.660;23.292;2024-03-07T02:03:28;68678.48;;;10.30;100.00
22930;BME280;11630;42.660;23.292;2024-03-07T02:05:59;68683.67;;;10.41;100.00
22930;BME280;11630;42.660;23.292;2024-03-07T02:08:34;68685.56;;;10.44;100.00
22930;BME280;11630;42.660;23.292;2024-03-07T02:11:09;68667.90;;;10.29;100.00
22930;BME280;11630;42.660;23.292;2024-03-07T02:13:39;68681.49;;;10.34;100.00
22930;BME280;11630;42.660;23.292;2024-03-07T02:16:13;68648.87;;;10.09;100.00
22930;BME280;11630;42.660;23.292;2024-03-07T02:18:45;68651.84;;;10.05;100.00
22930;BME280;11630;42.660;23.292;2024-03-07T02:21:15;68595.55;;;9.55;100.00
22930;BME280;11630;42.660;23.292;2024-03-07T02:23:46;68576.27;;;9.44;100.00
22930;BME280;11630;42.660;23.292;2024-03-07T02:26:17;68604.02;;;9.74;100.00
22930;BME280;11630;42.660;23.292;2024-03-07T02:28:48;68617.84;;;9.81;100.00
22930;BME280;11630;42.660;23.292;2024-03-07T02:31:19;68618.40;;;9.79;100.00
22930;BME280;11630;42.660;23.292;2024-03-07T02:33:50;68628.45;;;9.89;100.00
22930;BME280;11630;42.660;23.292;2024-03-07T02:36:21;68635.80;;;9.97;100.00
22930;BME280;11630;42.660;23.292;2024-03-07T02:38:51;68627.64;;;9.87;100.00
22930;BME280;11630;42.660;23.292;2024-03-07T02:41:22;68650.22;;;10.09;100.00
22930;BME280;11630;42.660;23.292;2024-03-07T02:43:53;68601.02;;;9.70;100.00
22930;BME280;11630;42.660;23.292;2024-03-07T02:46:24;68595.02;;;9.55;100.00
22930;BME280;11630;42.660;23.292;2024-03-07T02:48:55;68570.58;;;9.40;100.00
22930;BME280;11630;42.660;23.292;2024-03-07T02:51:25;68598.83;;;9.63;100.00
22930;BME280;11630;42.660;23.292;2024-03-07T02:53:57;68591.22;;;9.56;100.00
22930;BME280;11630;42.660;23.292;2024-03-07T02:56:27;68557.55;;;9.28;100.00
22930;BME280;11630;42.660;23.292;2024-03-07T02:58:57;68546.67;;;9.13;100.00
22930;BME280;11630;42.660;23.292;2024-03-07T03:01:28;68568.95;;;9.36;100.00
22930;BME280;11630;42.660;23.292;2024-03-07T03:03:59;68577.92;;;9.45;100.00
22930;BME280;11630;42.660;23.292;2024-03-07T03:06:30;68581.72;;;9.46;100.00
22930;BME280;11630;42.660;23.292;2024-03-07T03:09:01;68574.92;;;9.41;100.00
22930;BME280;11630;42.660;23.292;2024-03-07T03:11:31;68596.41;;;9.65;100.00
22930;BME280;11630;42.660;23.292;2024-03-07T03:14:02;68542.61;;;9.16;100.00
22930;BME280;11630;42.660;23.292;2024-03-07T03:16:33;68571.94;;;9.42;100.00
22930;BME280;11630;42.660;23.292;2024-03-07T03:19:04;68580.36;;;9.46;100.00
22930;BME280;11630;42.660;23.292;2024-03-07T03:21:35;68558.91;;;9.28;100.00
22930;BME280;11630;42.660;23.292;2024-03-07T03:24:06;68574.13;;;9.44;100.00
22930;BME280;11630;42.660;23.292;2024-03-07T03:26:37;68549.66;;;9.19;100.00
22930;BME280;11630;42.660;23.292;2024-03-07T03:29:07;68539.88;;;9.11;100.00
22930;BME280;11630;42.660;23.292;2024-03-07T03:31:38;68542.88;;;9.15;100.00
22930;BME280;11630;42.660;23.292;2024-03-07T03:34:09;68570.57;;;9.32;100.00
22930;BME280;11630;42.660;23.292;2024-03-07T03:36:39;68579.53;;;9.42;100.00
22930;BME280;11630;42.660;23.292;2024-03-07T03:39:10;68548.30;;;9.15;100.00
22930;BME280;11630;42.660;23.292;2024-03-07T03:41:41;68533.09;;;9.06;100.00
22930;BME280;11630;42.660;23.292;2024-03-07T03:44:12;68542.86;;;9.10;100.00
22930;BME280;11630;42.660;23.292;2024-03-07T03:46:43;68560.53;;;9.32;100.00
22930;BME280;11630;42.660;23.292;2024-03-07T03:49:14;68561.33;;;9.26;100.00
22930;BME280;11630;42.660;23.292;2024-03-07T03:51:45;68576.56;;;9.45;100.00
22930;BME280;11630;42.660;23.292;2024-03-07T03:54:16;68544.76;;;9.13;100.00
22930;BME280;11630;42.660;23.292;2024-03-07T03:56:47;68554.02;;;9.23;100.00
22930;BME280;11630;42.660;23.292;2024-03-07T03:59:17;68565.13;;;9.30;100.00
22930;BME280;11630;42.660;23.292;2024-03-07T04:01:49;68558.62;;;9.29;100.00
22930;BME280;11630;42.660;23.292;2024-03-07T04:04:19;68571.67;;;9.41;100.00
22930;BME280;11630;42.660;23.292;2024-03-07T04:06:50;68515.44;;;8.86;100.00
22930;BME280;11630;42.660;23.292;2024-03-07T04:09:21;68544.76;;;9.13;100.00
22930;BME280;11630;42.660;23.292;2024-03-07T04:11:52;68555.91;;;9.24;100.00
22930;BME280;11630;42.660;23.292;2024-03-07T04:14:23;68552.63;;;9.18;100.00
22930;BME280;11630;42.660;23.292;2024-03-07T04:16:53;68551.01;;;9.19;100.00
22930;BME280;11630;42.660;23.292;2024-03-07T04:19:24;68558.88;;;9.25;100.00
22930;BME280;11630;42.660;23.292;2024-03-07T04:21:55;68544.76;;;9.13;100.00
22930;BME280;11630;42.660;23.292;2024-03-07T04:24:25;68558.88;;;9.25;100.00
22930;BME280;11630;42.660;23.292;2024-03-07T04:26:56;68564.06;;;9.34;100.00
22930;BME280;11630;42.660;23.292;2024-03-07T04:29:36;68553.19;;;9.21;100.00
22930;BME280;11630;42.660;23.292;2024-03-07T04:32:06;68561.06;;;9.27;100.00
22930;BME280;11630;42.660;23.292;2024-03-07T04:34:37;68528.46;;;8.98;100.00
22930;BME280;11630;42.660;23.292;2024-03-07T04:37:08;68521.42;;;8.94;100.00
22930;BME280;11630;42.660;23.292;2024-03-07T04:39:40;68524.95;;;8.96;100.00
22930;BME280;11630;42.660;23.292;2024-03-07T04:42:11;68518.71;;;8.94;100.00
22930;BME280;11630;42.660;23.292;2024-03-07T04:44:42;68507.01;;;8.77;100.00
22930;BME280;11630;42.660;23.292;2024-03-07T04:47:14;68511.37;;;8.83;100.00
22930;BME280;11630;42.660;23.292;2024-03-07T04:49:45;68510.27;;;8.80;100.00
22930;BME280;11630;42.660;23.292;2024-03-07T04:52:16;68527.41;;;9.02;100.00
22930;BME280;11630;42.660;23.292;2024-03-07T04:54:47;68517.06;;;8.90;100.00
22930;BME280;11630;42.660;23.292;2024-03-07T04:57:18;68504.30;;;8.77;100.00
22930;BME280;11630;42.660;23.292;2024-03-07T04:59:49;68542.31;;;9.12;100.00
22930;BME280;11630;42.660;23.292;2024-03-07T05:02:20;68524.39;;;8.93;100.00
22930;BME280;11630;42.660;23.292;2024-03-07T05:04:51;68510.81;;;8.83;100.00
22930;BME280;11630;42.660;23.292;2024-03-07T05:07:22;68536.05;;;9.00;100.00
22930;BME280;11630;42.660;23.292;2024-03-07T05:09:53;68504.02;;;8.73;100.00
22930;BME280;11630;42.660;23.292;2024-03-07T05:12:24;68477.43;;;8.53;100.00
22930;BME280;11630;42.660;23.292;2024-03-07T05:14:54;68486.38;;;8.58;100.00
22930;BME280;11630;42.660;23.292;2024-03-07T05:17:25;68472.55;;;8.49;100.00
22930;BME280;11630;42.660;23.292;2024-03-07T05:19:56;68462.50;;;8.41;100.00
22930;BME280;11630;42.660;23.292;2024-03-07T05:22:27;68452.73;;;8.32;100.00
22930;BME280;11630;42.660;23.292;2024-03-07T05:24:58;68433.97;;;8.11;100.00
22930;BME280;11630;42.660;23.292;2024-03-07T05:27:29;68441.33;;;8.22;100.00
22930;BME280;11630;42.660;23.292;2024-03-07T05:29:59;68430.73;;;8.13;100.00
22930;BME280;11630;42.660;23.292;2024-03-07T05:32:31;68440.77;;;8.19;100.00
22930;BME280;11630;42.660;23.292;2024-03-07T05:35:02;68446.20;;;8.21;100.00
22930;BME280;11630;42.660;23.292;2024-03-07T05:37:33;68457.59;;;8.29;100.00
22930;BME280;11630;42.660;23.292;2024-03-07T05:40:04;68472.80;;;8.48;100.00
22930;BME280;11630;42.660;23.292;2024-03-07T05:42:35;68433.44;;;8.13;100.00
22930;BME280;11630;42.660;23.292;2024-03-07T05:45:07;68461.14;;;8.36;100.00
22930;BME280;11630;42.660;23.292;2024-03-07T05:47:37;68453.54;;;8.29;100.00
22930;BME280;11630;42.660;23.292;2024-03-07T05:50:09;68466.83;;;8.42;100.00
22930;BME280;11630;42.660;23.292;2024-03-07T05:52:40;68483.11;;;8.52;100.00
22930;BME280;11630;42.660;23.292;2024-03-07T05:55:12;68485.30;;;8.59;100.00
22930;BME280;11630;42.660;23.292;2024-03-07T05:57:43;68467.92;;;8.46;100.00
22930;BME280;11630;42.660;23.292;2024-03-07T06:00:15;68455.17;;;8.33;100.00
22930;BME280;11630;42.660;23.292;2024-03-07T06:02:46;68488.02;;;8.67;100.00
22930;BME280;11630;42.660;23.292;2024-03-07T06:05:17;68474.16;;;8.45;100.00
22930;BME280;11630;42.660;23.292;2024-03-07T06:07:48;68452.45;;;8.28;100.00
22930;BME280;11630;42.660;23.292;2024-03-07T06:10:19;68447.83;;;8.25;100.00
22930;BME280;11630;42.660;23.292;2024-03-07T06:12:50;68447.30;;;8.25;100.00
22930;BME280;11630;42.660;23.292;2024-03-07T06:15:21;68461.14;;;8.39;100.00
22930;BME280;11630;42.660;23.292;2024-03-07T06:17:52;68471.72;;;8.47;100.00
22930;BME280;11630;42.660;23.292;2024-03-07T06:20:23;68627.92;;;9.91;100.00
22930;BME280;11630;42.660;23.292;2024-03-07T06:22:54;68518.15;;;8.91;100.00
22930;BME280;11630;42.660;23.292;2024-03-07T06:25:25;68538.51;;;9.06;100.00
22930;BME280;11630;42.660;23.292;2024-03-07T06:28:12;68589.59;;;9.52;100.00
22930;BME280;11630;42.660;23.292;2024-03-07T06:30:45;68500.23;;;8.72;100.00
22930;BME280;11630;42.660;23.292;2024-03-07T06:33:16;68521.42;;;8.94;100.00
22930;BME280;11630;42.660;23.292;2024-03-07T06:35:47;68465.73;;;8.39;100.00
22930;BME280;11630;42.660;23.292;2024-03-07T06:38:18;68479.05;;;8.52;100.00
22930;BME280;11630;42.660;23.292;2024-03-07T06:40:49;68474.69;;;8.46;100.00
22930;BME280;11630;42.660;23.292;2024-03-07T06:43:19;68473.38;;;8.53;100.00
22930;BME280;11630;42.660;23.292;2024-03-07T06:45:50;68498.63;;;8.78;100.00
22930;BME280;11630;42.660;23.292;2024-03-07T06:48:21;68501.84;;;8.71;100.00
22930;BME280;11630;42.660;23.292;2024-03-07T06:50:52;68514.06;;;8.81;100.00
22930;BME280;11630;42.660;23.292;2024-03-07T06:53:23;68477.42;;;8.51;100.00
22930;BME280;11630;42.660;23.292;2024-03-07T06:55:54;68436.44;;;8.15;100.00
22930;BME280;11630;42.660;23.292;2024-03-07T06:58:25;68439.41;;;8.16;100.00
22930;BME280;11630;42.660;23.292;2024-03-07T07:00:56;68466.04;;;8.45;100.00
22930;BME280;11630;42.660;23.292;2024-03-07T07:03:27;68488.53;;;8.60;100.00
22930;BME280;11630;42.660;23.292;2024-03-07T07:05:58;68495.91;;;8.73;100.00
22930;BME280;11630;42.660;23.292;2024-03-07T07:08:29;68507.01;;;8.77;100.00
22930;BME280;11630;42.660;23.292;2024-03-07T07:10:59;68477.97;;;8.54;100.00
22930;BME280;11630;42.660;23.292;2024-03-07T07:13:30;68493.99;;;8.70;100.00
22930;BME280;11630;42.660;23.292;2024-03-07T07:16:00;68508.38;;;8.82;100.00
22930;BME280;11630;42.660;23.292;2024-03-07T07:18:31;68486.92;;;8.61;100.00
22930;BME280;11630;42.660;23.292;2024-03-07T07:21:01;68486.09;;;8.59;100.00
22930;BME280;11630;42.660;23.292;2024-03-07T07:23:32;68499.14;;;8.73;100.00
22930;BME280;11630;42.660;23.292;2024-03-07T07:26:03;68510.02;;;8.86;100.00
22930;BME280;11630;42.660;23.292;2024-03-07T07:28:35;68505.95;;;8.81;100.00
22930;BME280;11630;42.660;23.292;2024-03-07T07:31:05;68535.53;;;9.04;100.00
22930;BME280;11630;42.660;23.292;2024-03-07T07:33:36;68537.42;;;9.07;100.00
22930;BME280;11630;42.660;23.292;2024-03-07T07:36:07;68537.45;;;9.10;100.00
22930;BME280;11630;42.660;23.292;2024-03-07T07:38:38;68549.39;;;9.20;100.00
22930;BME280;11630;42.660;23.292;2024-03-07T07:41:09;68878.00;;;12.21;100.00
22930;BME280;11630;42.660;23.292;2024-03-07T07:43:43;69033.11;;;13.56;100.00
22930;BME280;11630;42.660;23.292;2024-03-07T07:46:20;69096.97;;;14.11;100.00
22930;BME280;11630;42.660;23.292;2024-03-07T07:49:03;68972.31;;;13.04;100.00
22930;BME280;11630;42.660;23.292;2024-03-07T07:51:50;68861.67;;;12.01;100.00
22930;BME280;11630;42.660;23.292;2024-03-07T07:54:20;68786.78;;;11.31;100.00
22930;BME280;11630;42.660;23.292;2024-03-07T07:56:56;68735.09;;;10.86;100.00
22930;BME280;11630;42.660;23.292;2024-03-07T08:02:13;68693.45;;;10.47;100.00
22930;BME280;11630;42.660;23.292;2024-03-07T08:04:42;68665.73;;;10.27;100.00
22930;BME280;11630;42.660;23.292;2024-03-07T08:07:13;68696.19;;;10.50;100.00
22930;BME280;11630;42.660;23.292;2024-03-07T08:09:44;68700.80;;;10.55;100.00
22930;BME280;11630;42.660;23.292;2024-03-07T08:12:15;68623.83;;;9.86;100.00
22930;BME280;11630;42.660;23.292;2024-03-07T08:14:46;68572.76;;;9.39;100.00
22930;BME280;11630;42.660;23.292;2024-03-07T08:17:17;68586.35;;;9.54;100.00
22930;BME280;11630;42.660;23.292;2024-03-07T08:19:48;68585.53;;;9.52;100.00
22930;BME280;11630;42.660;23.292;2024-03-07T08:22:19;68580.63;;;9.45;100.00
22930;BME280;11630;42.660;23.292;2024-03-07T08:24:50;68576.27;;;9.41;100.00
22930;BME280;11630;42.660;23.292;2024-03-07T08:27:21;68608.09;;;9.74;100.00
22930;BME280;11630;42.660;23.292;2024-03-07T08:29:52;68624.09;;;9.80;100.00
22930;BME280;11630;42.660;23.292;2024-03-07T08:32:23;68594.76;;;9.61;100.00
22930;BME280;11630;42.660;23.292;2024-03-07T08:34:53;68637.98;;;9.99;100.00
22930;BME280;11630;42.660;23.292;2024-03-07T08:37:27;68568.66;;;9.34;100.00
22930;BME280;11630;42.660;23.292;2024-03-07T08:39:55;68604.02;;;9.69;100.00
22930;BME280;11630;42.660;23.292;2024-03-07T08:42:26;68605.91;;;9.72;100.00
22930;BME280;11630;42.660;23.292;2024-03-07T08:44:57;68625.75;;;9.89;100.00
22930;BME280;11630;42.660;23.292;2024-03-07T08:47:27;68606.70;;;9.64;100.00
22930;BME280;11630;42.660;23.292;2024-03-07T08:49:59;68551.30;;;9.21;100.00
22930;BME280;11630;42.660;23.292;2024-03-07T08:52:29;68543.14;;;9.11;100.00
22930;BME280;11630;42.660;23.292;2024-03-07T08:55:00;68525.48;;;8.96;100.00
22930;BME280;11630;42.660;23.292;2024-03-07T08:57:31;68566.77;;;9.31;100.00
22930;BME280;11630;42.660;23.292;2024-03-07T09:00:09;68571.67;;;9.38;100.00
22930;BME280;11630;42.660;23.292;2024-03-07T09:02:40;68606.73;;;9.74;100.00
22930;BME280;11630;42.660;23.292;2024-03-07T09:05:11;68616.48;;;9.78;100.00
22930;BME280;11630;42.660;23.292;2024-03-07T09:07:42;68626.57;;;9.91;100.00
22930;BME280;11630;42.660;23.292;2024-03-07T09:10:13;68661.11;;;10.21;100.00
22930;BME280;11630;42.660;23.292;2024-03-07T09:12:50;68679.05;;;10.38;100.00
22930;BME280;11630;42.660;23.292;2024-03-07T09:15:21;68661.64;;;10.22;100.00
22930;BME280;11630;42.660;23.292;2024-03-07T09:17:52;68605.91;;;9.72;100.00
22930;BME280;11630;42.660;23.292;2024-03-07T09:20:23;68629.55;;;9.90;100.00
22930;BME280;11630;42.660;23.292;2024-03-07T09:22:54;68632.30;;;9.97;100.00
22930;BME280;11630;42.660;23.292;2024-03-07T09:25:25;68623.30;;;9.91;100.00
22930;BME280;11630;42.660;23.292;2024-03-07T09:28:01;68602.37;;;9.70;100.00
22930;BME280;11630;42.660;23.292;2024-03-07T09:30:33;68640.16;;;10.01;100.00
22930;BME280;11630;42.660;23.292;2024-03-07T09:33:04;68650.48;;;10.10;100.00
22930;BME280;11630;42.660;23.292;2024-03-07T09:35:37;68642.05;;;9.99;100.00
22930;BME280;11630;42.660;23.292;2024-03-07T09:38:08;68648.86;;;10.04;100.00
22930;BME280;11630;42.660;23.292;2024-03-07T09:40:39;68645.33;;;10.04;100.00
22930;BME280;11630;42.660;23.292;2024-03-07T09:43:11;68671.98;;;10.31;100.00
22930;BME280;11630;42.660;23.292;2024-03-07T09:45:44;68658.09;;;10.12;100.00
22930;BME280;11630;42.660;23.292;2024-03-07T09:48:16;68680.13;;;10.34;100.00
22930;BME280;11630;42.660;23.292;2024-03-07T09:50:47;68664.09;;;10.25;100.00
22930;BME280;11630;42.660;23.292;2024-03-07T09:53:19;68577.92;;;9.45;100.00
22930;BME280;11630;42.660;23.292;2024-03-07T09:55:49;68568.95;;;9.38;100.00
22930;BME280;11630;42.660;23.292;2024-03-07T09:58:21;68576.83;;;9.44;100.00
22930;BME280;11630;42.660;23.292;2024-03-07T10:00:53;68602.36;;;9.65;100.00
22930;BME280;11630;42.660;23.292;2024-03-07T10:03:24;68587.98;;;9.58;100.00
22930;BME280;11630;42.660;23.292;2024-03-07T10:05:56;68636.33;;;9.95;100.00
22930;BME280;11630;42.660;23.292;2024-03-07T10:08:29;68663.82;;;10.21;100.00
22930;BME280;11630;42.660;23.292;2024-03-07T10:11:01;68679.87;;;10.35;100.00
22930;BME280;11630;42.660;23.292;2024-03-07T10:13:31;68696.98;;;10.49;100.00
22930;BME280;11630;42.660;23.292;2024-03-07T10:16:03;68638.78;;;9.96;100.00
22930;BME280;11630;42.660;23.292;2024-03-07T10:18:32;68697.02;;;10.57;100.00
22930;BME280;11630;42.660;23.292;2024-03-07T10:21:03;68679.60;;;10.38;100.00
22930;BME280;11630;42.660;23.292;2024-03-07T10:23:35;68646.69;;;10.07;100.00
22930;BME280;11630;42.660;23.292;2024-03-07T10:26:06;68658.13;;;10.17;100.00
22930;BME280;11630;42.660;23.292;2024-03-07T10:28:38;68657.30;;;10.13;100.00
22930;BME280;11630;42.660;23.292;2024-03-07T10:31:09;68668.72;;;10.26;100.00
22930;BME280;11630;42.660;23.292;2024-03-07T10:33:42;68702.97;;;10.55;100.00
22930;BME280;11630;42.660;23.292;2024-03-07T10:36:14;68686.95;;;10.49;100.00
22930;BME280;11630;42.660;23.292;2024-03-07T10:38:45;68722.84;;;10.76;100.00
22930;BME280;11630;42.660;23.292;2024-03-07T10:41:16;68753.03;;;10.98;100.00
22930;BME280;11630;42.660;23.292;2024-03-07T10:43:49;68717.94;;;10.70;100.00
22930;BME280;11630;42.660;23.292;2024-03-07T10:46:22;68739.98;;;10.93;100.00
22930;BME280;11630;42.660;23.292;2024-03-07T10:48:54;68738.08;;;10.93;100.00
22930;BME280;11630;42.660;23.292;2024-03-07T10:51:37;68767.73;;;11.16;100.00
22930;BME280;11630;42.660;23.292;2024-03-07T10:54:24;68770.45;;;11.16;100.00
22930;BME280;11630;42.660;23.292;2024-03-07T11:00:00;68771.26;;;11.18;100.00
22930;BME280;11630;42.660;23.292;2024-03-07T11:02:37;68765.55;;;11.12;100.00
22930;BME280;11630;42.660;23.292;2024-03-07T11:05:06;68784.60;;;11.29;100.00
22930;BME280;11630;42.660;23.292;2024-03-07T11:07:38;68766.38;;;11.16;100.00
22930;BME280;11630;42.660;23.292;2024-03-07T11:10:10;68723.64;;;10.73;100.00
22930;BME280;11630;42.660;23.292;2024-03-07T11:12:44;68702.98;;;10.60;100.00
22930;BME280;11630;42.660;23.292;2024-03-07T11:15:17;68742.70;;;10.93;100.00
22930;BME280;11630;42.660;23.292;2024-03-07T11:17:51;68732.64;;;10.85;100.00
22930;BME280;11630;42.660;23.292;2024-03-07T11:20:24;68739.42;;;10.88;100.00
22930;BME280;11630;42.660;23.292;2024-03-07T11:22:55;68745.69;;;11.02;100.00
22930;BME280;11630;42.660;23.292;2024-03-07T11:25:26;68627.64;;;9.92;100.00
22930;BME280;11630;42.660;23.292;2024-03-07T11:28:00;68660.02;;;10.18;100.00
22930;BME280;11630;42.660;23.292;2024-03-07T11:30:31;68680.96;;;10.43;100.00
22930;BME280;11630;42.660;23.292;2024-03-07T11:33:02;68710.86;;;10.63;100.00
22930;BME280;11630;42.660;23.292;2024-03-07T11:35:33;68689.67;;;10.51;100.00
22930;BME280;11630;42.660;23.292;2024-03-07T11:38:10;68659.48;;;10.20;100.00
22930;BME280;11630;42.660;23.292;2024-03-07T11:40:44;68657.57;;;10.22;100.00
22930;BME280;11630;42.660;23.292;2024-03-07T11:43:14;68674.17;;;10.36;100.00
22930;BME280;11630;42.660;23.292;2024-03-07T11:45:44;68685.00;;;10.33;100.00
22930;BME280;11630;42.660;23.292;2024-03-07T11:48:15;68674.67;;;10.26;100.00
22930;BME280;11630;42.660;23.292;2024-03-07T11:50:47;68690.76;;;10.50;100.00
22930;BME280;11630;42.660;23.292;2024-03-07T11:53:18;68683.94;;;10.42;100.00
22930;BME280;11630;42.660;23.292;2024-03-07T11:55:49;68710.86;;;10.61;100.00
22930;BME280;11630;42.660;23.292;2024-03-07T11:58:22;68691.83;;;10.48;100.00
22930;BME280;11630;42.660;23.292;2024-03-07T12:00:53;68698.91;;;10.60;100.00
22930;BME280;11630;42.660;23.292;2024-03-07T12:03:22;68691.02;;;10.49;100.00
22930;BME280;11630;42.660;23.292;2024-03-07T12:05:53;68729.36;;;10.80;100.00
22930;BME280;11630;42.660;23.292;2024-03-07T12:08:24;68756.58;;;11.12;100.00
22930;BME280;11630;42.660;23.292;2024-03-07T12:10:55;68751.13;;;11.00;100.00
22930;BME280;11630;42.660;23.292;2024-03-07T12:13:26;68732.34;;;10.81;100.00
22930;BME280;11630;42.660;23.292;2024-03-07T12:15:58;68763.38;;;11.07;100.00
22930;BME280;11630;42.660;23.292;2024-03-07T12:18:30;68751.95;;;11.04;100.00
22930;BME280;11630;42.660;23.292;2024-03-07T12:21:01;68740.50;;;10.84;100.00
22930;BME280;11630;42.660;23.292;2024-03-07T12:23:32;68763.93;;;11.15;100.00
22930;BME280;11630;42.660;23.292;2024-03-07T12:26:05;68773.98;;;11.18;100.00
22930;BME280;11630;42.660;23.292;2024-03-07T12:28:35;68761.48;;;11.12;100.00
22930;BME280;11630;42.660;23.292;2024-03-07T12:31:05;68791.67;;;11.33;100.00
22930;BME280;11630;42.660;23.292;2024-03-07T12:33:36;68761.48;;;11.09;100.00
22930;BME280;11630;42.660;23.292;2024-03-07T12:36:09;68780.77;;;11.21;100.00
22930;BME280;11630;42.660;23.292;2024-03-07T12:38:40;68707.88;;;10.67;100.00
22930;BME280;11630;42.660;23.292;2024-03-07T12:41:11;68750.59;;;10.97;100.00
22930;BME280;11630;42.660;23.292;2024-03-07T12:43:44;68756.58;;;11.10;100.00
22930;BME280;11630;42.660;23.292;2024-03-07T12:46:14;68727.73;;;10.78;100.00
22930;BME280;11630;42.660;23.292;2024-03-07T12:48:44;68747.05;;;10.97;100.00
22930;BME280;11630;42.660;23.292;2024-03-07T12:51:14;68761.74;;;11.08;100.00
22930;BME280;11630;42.660;23.292;2024-03-07T12:53:44;68718.77;;;10.72;100.00
22930;BME280;11630;42.660;23.292;2024-03-07T12:56:15;68754.13;;;11.06;100.00
22930;BME280;11630;42.660;23.292;2024-03-07T12:58:45;68660.84;;;10.25;100.00
22930;BME280;11630;42.660;23.292;2024-03-07T13:01:15;68683.94;;;10.40;100.00
22930;BME280;11630;42.660;23.292;2024-03-07T13:03:47;68682.85;;;10.39;100.00
22930;BME280;11630;42.660;23.292;2024-03-07T13:06:18;68691.83;;;10.51;100.00
22930;BME280;11630;42.660;23.292;2024-03-07T13:08:48;68689.38;;;10.45;100.00
22930;BME280;11630;42.660;23.292;2024-03-07T13:11:19;68701.89;;;10.59;100.00